Terminal Aerodrome Forecast
Issued by NWS

Home | Current Version | Previous Version | Text Only | Print | Product List | Glossary On
Versions: 1 2 3 4 5 6 7 8 9 10 11 12 13 14 15 16 17 18 19 20
000
FTUS43 KDLH 220407 AAB
TAFHYR
TAF AMD
KHYR 220407Z 2204/2224 15007KT P6SM -SHRA VCTS SCT020CB BKN100
      WS020/19045KT
     FM221100 17005KT 3SM BR VCSH BKN015 BKN100
     FM221500 15011KT P6SM BKN020
     FM221600 16012KT P6SM SCT045=

USA.gov is the U.S. government's official web portal to all federal, state and local government web resources and services.